Monday, February 19, 2018, 4:56 AM EST
Back to Local

KSBY, Salisbury-wicomico Cty Reg

Location: Salisbury, MD, United States Lat: 38.333
Local Time: 4:56 AM EST ( 9:56 GMT) Lon: -75.5
Time Zone: US/Eastern Elev: 52 ft

Show me the last for .
Show Decoded

2018-02-19 03:54 METAR KSBY 190854Z AUTO 00000KT 10SM CLR M01/M02 A3049 RMK AO2 SLP327 T10111017
                 58013 =
2018-02-19 02:54 METAR KSBY 190754Z AUTO 00000KT 9SM CLR M01/M02 A3052 RMK AO2 SLP337 T10111017 =
2018-02-19 01:54 METAR KSBY 190654Z AUTO 11004KT 10SM CLR M01/M02 A3052 RMK AO2 SLP337 T10061017
                 =
2018-02-19 00:54 METAR KSBY 190554Z AUTO 10003KT 10SM CLR M01/M02 A3053 RMK AO2 SLP340 T10111017
                 10028 21017 50008 =
2018-02-18 23:54 METAR KSBY 190454Z AUTO 00000KT 10SM CLR M01/M02 A3054 RMK AO2 SLP343 T10111022
                 401001011 =
2018-02-18 22:54 METAR KSBY 190354Z AUTO 00000KT 10SM CLR M01/M01 A3053 RMK AO2 SLP339 T10061011
                 =
2018-02-18 21:54 METAR KSBY 190254Z 00000KT 10SM CLR 01/M01 A3050 RMK AO2 SLP332 T00061011 51014
                 =
2018-02-18 20:54 METAR KSBY 190154Z 10003KT 10SM CLR 01/M01 A3049 RMK AO2 SLP328 T00111006 =
2018-02-18 19:54 METAR KSBY 190054Z 00000KT 10SM CLR 02/00 A3048 RMK AO2 SLP325 T00170000 =
2018-02-18 18:54 METAR KSBY 182354Z 00000KT 10SM CLR 03/01 A3046 RMK AO2 SLP318 T00280006 10100
                 20028 53016 =
2018-02-18 17:54 METAR KSBY 182254Z 00000KT 10SM CLR 07/M01 A3044 RMK AO2 SLP310 T00721011 =
2018-02-18 16:54 METAR KSBY 182154Z 31005KT 10SM CLR 09/M01 A3043 RMK AO2 SLP309 T00891006 =
2018-02-18 15:54 METAR KSBY 182054Z 34006KT 10SM CLR 10/00 A3041 RMK AO2 SLP301 T01000000 53002 =
2018-02-18 14:54 METAR KSBY 181954Z 30008KT 10SM CLR 09/00 A3039 RMK AO2 SLP295 T00940000 =
2018-02-18 13:54 METAR KSBY 181854Z 33008KT 10SM CLR 09/00 A3040 RMK AO2 SLP298 T00890000 =
2018-02-18 12:54 METAR KSBY 181754Z 33010G16KT 300V360 10SM BKN039 09/01 A3041 RMK AO2 SLP300
                 T00940006 10094 20017 51016 =
2018-02-18 11:54 METAR KSBY 181654Z 34009KT 10SM OVC037 07/00 A3041 RMK AO2 SLP300 T00720000 =
2018-02-18 10:54 METAR KSBY 181554Z 33016G20KT 10SM BKN038 07/01 A3039 RMK AO2 SLP295 T00720006 =
2018-02-18 09:54 METAR KSBY 181454Z 33012G18KT 10SM CLR 07/01 A3036 RMK AO2 SLP284 T00720011
                 51046 =
2018-02-18 08:54 METAR KSBY 181354Z 33006KT 10SM CLR 06/03 A3032 RMK AO2 SLP271 T00560028 =
2018-02-18 07:54 METAR KSBY 181254Z 27004KT 10SM CLR 03/03 A3028 RMK AO2 SLP255 T00330028 =
2018-02-18 06:54 METAR KSBY 181154Z 27003KT 10SM CLR 02/01 A3023 RMK AO2 SLP238 70062 T00170011
                 10033 20017 53041 =
2018-02-18 05:54 METAR KSBY 181054Z 28004KT 10SM CLR 02/02 A3018 RMK AO2 SLP223 T00220017 =
2018-02-18 05:32 METAR KSBY 181032Z AUTO 27006KT 10SM SCT006 02/02 A3016 RMK AO2 T00220022 =

Support USWX by starting your Amazon purchase here.